createdAt,value
2017-12-04T06:25:46.389Z,19.55
2017-12-04T08:09:16.513Z,31.52
2017-12-04T08:11:44.565Z,19.75
2017-12-04T12:15:38.513Z,26.20
2017-12-04T12:18:06.661Z,20.02
2017-12-04T12:20:34.734Z,15.48
2017-12-04T12:23:02.907Z,14.18
2017-12-04T12:25:31.082Z,15.20
2017-12-04T12:27:59.262Z,15.15
2017-12-04T12:30:27.329Z,13.85
2017-12-04T12:32:55.390Z,15.25
2017-12-04T12:35:23.466Z,14.00
2017-12-04T12:37:51.541Z,14.02
2017-12-04T12:40:19.716Z,20.98
2017-12-04T12:42:47.789Z,13.65
2017-12-04T12:45:15.965Z,14.13
2017-12-04T12:47:44.137Z,13.73
2017-12-04T12:50:12.196Z,15.93
2017-12-04T12:52:40.274Z,16.42
2017-12-04T12:55:08.330Z,14.50
2017-12-04T12:57:36.385Z,14.90
2017-12-04T13:00:05.226Z,13.05
2017-12-04T13:02:33.294Z,15.02
2017-12-04T13:05:01.361Z,12.85
2017-12-04T13:07:29.538Z,11.90
2017-12-04T13:09:57.601Z,20.00
2017-12-04T13:12:25.785Z,18.02
2017-12-04T13:14:53.853Z,14.35
2017-12-04T13:17:22.020Z,21.12
2017-12-04T13:19:50.070Z,10.10
2017-12-04T13:22:19.013Z,11.63
2017-12-04T13:24:47.834Z,14.05
2017-12-04T13:27:16.670Z,11.27
2017-12-04T13:29:44.846Z,11.75
2017-12-04T13:32:24.698Z,14.38
2017-12-04T13:35:05.969Z,10.30
2017-12-04T13:37:34.045Z,13.65
2017-12-04T13:40:02.113Z,12.43
2017-12-04T13:42:30.187Z,10.63
2017-12-04T13:44:58.622Z,10.45
2017-12-04T13:47:27.490Z,10.52
2017-12-04T13:49:55.542Z,13.62
2017-12-04T13:52:23.598Z,15.80
2017-12-04T13:54:52.382Z,17.40
2017-12-04T13:57:20.442Z,17.00
2017-12-04T13:59:48.529Z,18.52
2017-12-04T14:02:16.580Z,18.20
2017-12-04T14:04:44.640Z,17.33
2017-12-04T14:07:13.473Z,21.52
2017-12-04T14:09:41.577Z,11.38
2017-12-04T14:12:09.633Z,20.02
2017-12-04T14:14:37.678Z,9.82
2017-12-04T14:17:05.730Z,11.15
2017-12-04T14:19:34.248Z,8.38
2017-12-04T14:22:03.025Z,12.43
2017-12-04T14:24:31.510Z,8.93
2017-12-04T14:26:59.578Z,10.38
2017-12-04T14:29:27.660Z,12.25
2017-12-04T14:31:55.715Z,13.20
2017-12-04T14:34:23.795Z,13.02
2017-12-04T14:36:51.863Z,13.13
2017-12-04T14:39:19.948Z,11.73
2017-12-04T14:41:47.985Z,15.18
2017-12-04T14:44:16.186Z,11.43
2017-12-04T14:46:44.625Z,9.68
2017-12-04T14:49:13.566Z,10.57
2017-12-04T14:51:41.628Z,12.60
2017-12-04T14:54:09.693Z,14.60
2017-12-04T14:56:38.186Z,14.38
2017-12-04T14:59:06.233Z,15.88
2017-12-04T15:01:35.052Z,15.13
2017-12-04T15:04:03.224Z,16.65
2017-12-04T15:06:31.396Z,18.20
2017-12-04T15:08:59.457Z,17.92
2017-12-04T15:11:27.538Z,10.15
2017-12-04T15:13:55.619Z,15.82
2017-12-04T15:16:23.798Z,13.32
2017-12-04T15:18:51.958Z,12.25
2017-12-04T15:21:20.025Z,12.05
2017-12-04T15:23:48.085Z,12.95
2017-12-04T15:26:16.129Z,15.13
2017-12-04T15:28:45.053Z,9.45
2017-12-04T15:31:13.110Z,15.15
2017-12-04T15:33:41.558Z,13.30
2017-12-04T15:36:09.609Z,16.50
2017-12-04T15:38:37.753Z,11.68
2017-12-04T15:41:05.797Z,11.57
2017-12-04T15:43:34.719Z,8.48
2017-12-04T15:46:03.905Z,13.02
2017-12-04T15:48:31.994Z,14.25
2017-12-04T15:51:00.062Z,9.73
2017-12-04T15:53:28.110Z,11.80
2017-12-04T15:55:56.190Z,17.48
2017-12-04T15:58:24.240Z,14.65
2017-12-04T16:00:52.758Z,17.10
2017-12-04T16:03:20.817Z,21.02
2017-12-04T16:05:48.881Z,12.57
2017-12-04T16:08:16.973Z,15.57
2017-12-04T16:10:45.025Z,12.88
2017-12-04T16:13:13.092Z,11.10
2017-12-04T16:15:41.173Z,13.62
2017-12-04T16:18:09.221Z,18.05
2017-12-04T16:20:38.042Z,13.65
2017-12-04T16:23:06.097Z,10.25
2017-12-04T16:25:34.141Z,11.75
2017-12-04T16:28:02.202Z,11.45
2017-12-04T16:30:30.286Z,12.60
2017-12-04T16:32:58.342Z,12.05
2017-12-04T16:35:26.402Z,20.42
2017-12-04T16:37:54.962Z,11.77
2017-12-04T16:40:23.010Z,15.00
2017-12-04T16:42:51.917Z,11.98
2017-12-04T16:45:19.994Z,8.88
2017-12-04T16:47:49.185Z,13.65
2017-12-04T16:50:17.238Z,12.23
2017-12-04T16:52:46.148Z,13.73
2017-12-04T16:55:14.202Z,12.77
2017-12-04T16:57:43.116Z,13.35
2017-12-04T17:00:11.194Z,10.25
2017-12-04T17:02:39.258Z,10.40
2017-12-04T17:05:07.309Z,14.93
2017-12-04T17:07:36.224Z,14.05
2017-12-04T17:10:04.397Z,13.60
2017-12-04T17:12:32.458Z,16.45
2017-12-04T17:15:00.547Z,14.60
2017-12-04T17:17:28.729Z,18.60
2017-12-04T17:19:56.789Z,13.18
2017-12-04T17:22:24.845Z,15.70
2017-12-04T17:24:53.301Z,16.45
2017-12-04T17:27:21.794Z,20.02
2017-12-04T17:29:50.728Z,15.43
2017-12-04T17:32:18.890Z,20.67
2017-12-04T17:34:46.976Z,16.25
2017-12-04T17:37:15.038Z,16.58
2017-12-04T17:39:43.211Z,15.18
2017-12-04T17:42:11.277Z,14.18
2017-12-04T17:44:39.502Z,19.98
2017-12-04T17:47:07.806Z,27.80
2017-12-04T17:49:36.740Z,18.23
2017-12-04T17:52:04.810Z,25.23
2017-12-04T17:54:32.878Z,17.05
2017-12-04T17:57:01.158Z,20.88
2017-12-04T17:59:30.037Z,18.35
2017-12-04T18:01:58.920Z,22.50
2017-12-04T18:04:26.977Z,18.98
2017-12-04T18:06:55.044Z,18.37
2017-12-04T18:09:23.132Z,15.93
2017-12-04T18:11:51.372Z,21.20
2017-12-04T18:14:20.195Z,18.37
2017-12-04T18:16:48.291Z,15.30
2017-12-04T18:19:16.333Z,13.73
2017-12-04T18:21:44.415Z,20.05
2017-12-04T18:24:12.602Z,17.40
2017-12-04T18:26:40.809Z,16.58
2017-12-04T18:29:09.060Z,12.88
2017-12-04T18:31:38.464Z,20.27
2017-12-04T18:34:07.658Z,14.40
2017-12-04T18:36:35.729Z,22.48
2017-12-04T18:39:03.873Z,19.83
2017-12-04T18:41:32.041Z,26.00
2017-12-04T18:44:00.979Z,21.12
2017-12-04T18:46:30.576Z,16.85
2017-12-04T18:49:00.312Z,20.77
2017-12-04T18:51:28.898Z,20.17
2017-12-04T18:53:57.448Z,18.87
2017-12-04T18:56:26.021Z,18.15
2017-12-04T18:58:55.182Z,19.25
2017-12-04T19:01:23.242Z,20.33
2017-12-04T19:03:51.793Z,18.85
2017-12-04T19:06:20.277Z,19.83
2017-12-04T19:08:49.789Z,20.37
2017-12-04T19:11:17.845Z,21.77
2017-12-04T19:13:46.641Z,22.48
2017-12-04T19:16:15.494Z,20.05
2017-12-04T19:18:44.474Z,31.62
2017-12-04T19:21:12.637Z,16.17
2017-12-04T19:23:41.644Z,20.25
2017-12-04T19:26:10.130Z,24.00
2017-12-04T19:28:38.190Z,19.87
2017-12-04T19:31:06.730Z,26.35
2017-12-04T19:33:35.652Z,22.65
2017-12-04T19:36:03.859Z,23.48
2017-12-04T19:38:32.659Z,19.02
2017-12-04T19:41:01.595Z,21.65
2017-12-04T19:43:29.937Z,16.45
2017-12-04T19:45:59.294Z,21.80
2017-12-04T19:48:28.177Z,20.35
2017-12-04T19:50:56.638Z,21.60
2017-12-04T19:53:25.453Z,18.70
2017-12-04T19:55:53.925Z,25.80
2017-12-04T19:58:21.985Z,21.62
2017-12-04T20:00:50.049Z,19.80
2017-12-04T20:03:18.533Z,21.05
2017-12-04T20:05:46.712Z,23.05
2017-12-04T20:08:15.161Z,23.67
2017-12-04T20:10:43.218Z,25.58
2017-12-04T20:13:12.157Z,27.42
2017-12-04T20:15:40.983Z,23.00
2017-12-04T20:18:10.574Z,24.05
2017-12-04T20:20:39.474Z,22.65
2017-12-04T20:23:08.301Z,22.90
2017-12-04T20:25:36.373Z,23.52
2017-12-04T20:28:05.281Z,25.10
2017-12-04T20:30:33.764Z,21.33
2017-12-04T20:33:02.605Z,20.65
2017-12-04T20:35:32.177Z,19.85
2017-12-04T20:38:01.435Z,29.63
2017-12-04T20:40:30.274Z,20.95
2017-12-04T20:42:58.732Z,27.80
2017-12-04T20:45:26.801Z,22.35
2017-12-04T20:47:54.906Z,24.10
2017-12-04T20:50:22.974Z,28.70
2017-12-04T20:52:51.852Z,25.35
2017-12-04T20:55:19.937Z,23.77
2017-12-04T20:57:48.009Z,24.05
2017-12-04T21:00:16.066Z,22.23
2017-12-04T21:02:45.937Z,25.42
2017-12-04T21:05:14.051Z,25.33
2017-12-04T21:07:50.922Z,19.23
2017-12-04T21:10:30.938Z,24.92
2017-12-04T21:13:11.718Z,24.17
2017-12-04T21:15:52.541Z,20.98
2017-12-04T21:18:21.106Z,24.75
2017-12-04T21:20:49.166Z,20.95
2017-12-04T21:23:17.666Z,23.45
2017-12-04T21:25:46.881Z,21.85
2017-12-04T21:28:14.948Z,25.52
2017-12-04T21:30:43.509Z,25.92
2017-12-04T21:33:11.581Z,23.75
2017-12-04T21:35:40.422Z,22.00
2017-12-04T21:38:08.878Z,24.73
2017-12-04T21:40:37.342Z,22.02
2017-12-04T21:43:06.161Z,24.65
2017-12-04T21:45:34.716Z,26.33
2017-12-04T21:48:02.774Z,22.40
2017-12-04T21:50:31.266Z,26.80
2017-12-04T21:52:59.328Z,29.08
2017-12-04T21:55:28.553Z,22.55
2017-12-04T21:57:57.117Z,26.83
2017-12-04T22:00:25.922Z,22.30
2017-12-04T22:02:54.807Z,28.65
2017-12-04T22:05:22.984Z,26.90
2017-12-04T22:07:51.872Z,25.02
2017-12-04T22:10:20.344Z,25.73
2017-12-04T22:12:49.170Z,22.58
2017-12-04T22:15:17.305Z,24.23
2017-12-04T22:17:45.781Z,21.50
2017-12-04T22:20:13.861Z,22.80
2017-12-04T22:22:42.034Z,26.12
2017-12-04T22:25:10.090Z,24.63
2017-12-04T22:27:38.174Z,29.50
2017-12-04T22:30:06.249Z,25.75
2017-12-04T22:32:34.322Z,23.05
2017-12-04T22:35:02.508Z,25.35
2017-12-04T22:52:17.034Z,23.85
2017-12-04T23:19:22.873Z,26.42
2017-12-04T23:21:50.927Z,29.05
2017-12-04T23:24:19.000Z,31.52
2017-12-04T23:26:47.054Z,25.75
2017-12-04T23:29:15.877Z,27.15
2017-12-04T23:31:44.049Z,29.23
2017-12-04T23:34:12.101Z,22.52
2017-12-04T23:36:40.178Z,29.42
2017-12-04T23:39:08.237Z,25.95
2017-12-04T23:41:36.314Z,23.80
2017-12-04T23:44:04.373Z,23.92
2017-12-04T23:46:33.306Z,22.90
2017-12-04T23:49:01.478Z,28.52
2017-12-04T23:51:29.542Z,24.35
2017-12-04T23:53:57.600Z,28.62
2017-12-04T23:56:25.686Z,21.48
2017-12-04T23:58:54.585Z,27.60
